createdAt,value
2019-04-22T00:00:51.417Z,15.30
2019-04-22T00:03:22.117Z,14.80
2019-04-22T00:06:12.903Z,14.80
2019-04-22T00:08:54.166Z,14.80
2019-04-22T00:11:25.900Z,14.80
2019-04-22T00:16:33.892Z,14.80
2019-04-22T00:21:31.935Z,14.70
2019-04-22T00:26:39.288Z,14.80
2019-04-22T00:29:10.169Z,14.70
2019-04-22T00:32:02.044Z,14.70
2019-04-22T00:34:33.920Z,14.70
2019-04-22T00:37:11.614Z,14.70
2019-04-22T00:39:44.444Z,14.60
2019-04-22T00:42:09.971Z,14.60
2019-04-22T00:44:45.173Z,14.60
2019-04-22T00:47:17.986Z,14.50
2019-04-22T00:50:12.332Z,14.50
2019-04-22T00:52:16.710Z,14.40
2019-04-22T00:54:56.113Z,14.40
2019-04-22T00:57:21.718Z,14.40
2019-04-22T00:59:55.430Z,14.30
2019-04-22T01:02:27.737Z,14.30
2019-04-22T01:05:01.123Z,14.20
2019-04-22T01:07:30.863Z,14.20
2019-04-22T01:12:37.476Z,14.20
2019-04-22T01:15:07.431Z,14.20
2019-04-22T01:17:39.951Z,14.10
2019-04-22T01:20:25.748Z,14.10
2019-04-22T01:22:34.902Z,14.00
2019-04-22T01:25:07.993Z,14.00
2019-04-22T01:27:43.381Z,14.00
2019-04-22T01:30:07.256Z,14.00
2019-04-22T01:32:32.815Z,14.10
2019-04-22T01:35:12.959Z,14.10
2019-04-22T01:37:48.466Z,14.00
2019-04-22T01:40:33.167Z,14.00
2019-04-22T01:43:15.077Z,14.00
2019-04-22T01:45:36.736Z,14.00
2019-04-22T01:48:02.912Z,13.90
2019-04-22T01:50:38.507Z,13.60
2019-04-22T01:53:11.762Z,13.90
2019-04-22T01:55:43.979Z,13.90
2019-04-22T01:58:11.087Z,13.90
2019-04-22T02:00:45.356Z,13.90
2019-04-22T02:03:17.801Z,13.90
2019-04-22T02:05:50.480Z,13.80
2019-04-22T02:08:36.578Z,13.80
2019-04-22T02:10:54.795Z,13.80
2019-04-22T02:13:33.517Z,13.80
2019-04-22T02:15:58.772Z,14.30
2019-04-22T02:18:36.259Z,13.80
2019-04-22T02:21:01.694Z,13.70
2019-04-22T02:26:07.146Z,13.70
2019-04-22T02:28:42.783Z,13.70
2019-04-22T02:34:12.063Z,13.70
2019-04-22T02:47:01.154Z,13.60
2019-04-22T02:51:31.782Z,13.60
2019-04-22T02:59:11.661Z,13.50
2019-04-22T03:04:10.907Z,13.40
2019-04-22T03:06:39.758Z,13.40
2019-04-22T03:09:18.499Z,13.30
2019-04-22T03:12:04.435Z,13.30
2019-04-22T03:14:33.819Z,13.80
2019-04-22T03:24:35.810Z,13.20
2019-04-22T03:27:01.101Z,13.20
2019-04-22T03:33:09.458Z,13.00
2019-04-22T03:35:31.027Z,13.10
2019-04-22T03:40:19.586Z,13.00
2019-04-22T03:53:06.219Z,12.90
2019-04-22T04:08:14.574Z,13.00
2019-04-22T04:13:33.792Z,13.00
2019-04-22T04:15:57.697Z,13.00
2019-04-22T04:18:25.800Z,13.00
2019-04-22T04:21:01.576Z,13.00
2019-04-22T04:26:24.001Z,12.90
2019-04-22T04:31:11.378Z,12.90
2019-04-22T04:33:38.140Z,12.90
2019-04-22T04:36:14.695Z,12.90
2019-04-22T04:38:45.672Z,12.90
2019-04-22T04:41:26.674Z,12.90
2019-04-22T04:43:56.427Z,12.90
2019-04-22T04:46:24.812Z,12.90
2019-04-22T04:49:00.533Z,12.90
2019-04-22T04:51:33.264Z,13.00
2019-04-22T04:54:04.194Z,13.00
2019-04-22T04:56:36.430Z,13.00
2019-04-22T04:59:19.495Z,13.00
2019-04-22T05:01:35.189Z,13.10
2019-04-22T05:09:15.046Z,13.30
2019-04-22T05:11:53.758Z,13.40
2019-04-22T05:14:14.449Z,13.40
2019-04-22T05:19:15.500Z,13.60
2019-04-22T05:21:51.452Z,13.70
2019-04-22T05:24:29.292Z,13.70
2019-04-22T05:27:05.275Z,13.80
2019-04-22T05:29:17.269Z,13.80
2019-04-22T05:31:52.305Z,13.80
2019-04-22T05:34:22.851Z,13.80
2019-04-22T05:36:57.141Z,13.90
2019-04-22T05:39:24.621Z,14.80
2019-04-22T05:42:03.109Z,14.00
2019-04-22T05:44:39.463Z,13.60
2019-04-22T05:47:01.077Z,14.20
2019-04-22T05:49:48.074Z,14.30
2019-04-22T05:52:11.106Z,14.50
2019-04-22T05:54:40.126Z,14.60
2019-04-22T05:57:14.465Z,14.70
2019-04-22T05:59:50.246Z,14.80
2019-04-22T06:02:24.087Z,15.00
2019-04-22T06:04:55.127Z,15.10
2019-04-22T06:07:25.322Z,15.20
2019-04-22T06:09:49.256Z,15.30
2019-04-22T06:12:23.429Z,15.30
2019-04-22T06:14:58.127Z,15.40
2019-04-22T06:17:32.226Z,15.40
2019-04-22T06:20:02.752Z,15.50
2019-04-22T06:22:50.442Z,15.50
2019-04-22T06:25:16.258Z,15.50
2019-04-22T06:27:42.896Z,15.50
2019-04-22T06:30:17.235Z,15.60
2019-04-22T06:32:46.941Z,15.70
2019-04-22T06:35:23.271Z,15.80
2019-04-22T06:37:55.321Z,16.00
2019-04-22T06:40:24.669Z,16.00
2019-04-22T06:43:01.442Z,16.10
2019-04-22T06:45:23.427Z,16.20
2019-04-22T06:48:17.903Z,16.30
2019-04-22T06:50:32.801Z,16.40
2019-04-22T06:53:06.783Z,16.60
2019-04-22T06:55:39.023Z,16.70
2019-04-22T06:58:04.621Z,16.80
2019-04-22T07:00:38.388Z,17.00
2019-04-22T07:03:30.392Z,17.20
2019-04-22T07:05:41.314Z,17.70
2019-04-22T07:08:34.587Z,17.40
2019-04-22T07:13:10.955Z,17.50
2019-04-22T07:15:53.198Z,17.50
2019-04-22T07:18:26.152Z,17.50
2019-04-22T07:23:45.681Z,17.70
2019-04-22T07:25:56.574Z,17.80
2019-04-22T07:28:27.391Z,17.80
2019-04-22T07:31:05.035Z,17.80
2019-04-22T07:36:32.154Z,18.00
2019-04-22T07:38:52.718Z,18.00
2019-04-22T07:41:17.222Z,18.10
2019-04-22T07:44:02.961Z,18.10
2019-04-22T07:48:53.900Z,18.00
2019-04-22T07:51:24.501Z,18.00
2019-04-22T07:53:58.860Z,18.10
2019-04-22T07:56:24.260Z,18.20
2019-04-22T07:58:55.663Z,18.30
2019-04-22T08:01:42.760Z,18.50
2019-04-22T08:04:15.195Z,18.60
2019-04-22T08:06:43.775Z,18.80
2019-04-22T08:09:13.913Z,18.90
2019-04-22T08:14:18.387Z,19.20
2019-04-22T08:16:45.165Z,19.40
2019-04-22T08:21:52.115Z,19.70
2019-04-22T08:24:25.299Z,19.80
2019-04-22T08:26:53.121Z,19.90
2019-04-22T08:29:38.090Z,20.00
2019-04-22T08:32:01.107Z,20.10
2019-04-22T08:34:32.596Z,20.20
2019-04-22T08:39:56.699Z,20.50
2019-04-22T08:42:13.911Z,20.70
2019-04-22T08:45:00.532Z,20.90
2019-04-22T08:47:21.822Z,21.10
2019-04-22T08:49:52.051Z,21.30
2019-04-22T08:52:16.013Z,21.30
2019-04-22T08:54:52.298Z,21.20
2019-04-22T08:57:18.342Z,21.40
2019-04-22T08:59:50.032Z,21.80
2019-04-22T09:02:31.851Z,22.00
2019-04-22T09:04:53.897Z,22.00
2019-04-22T09:07:28.604Z,22.20
2019-04-22T09:10:00.042Z,22.40
2019-04-22T09:12:50.101Z,22.60
2019-04-22T09:14:57.182Z,22.80
2019-04-22T09:17:34.911Z,22.90
2019-04-22T09:20:10.840Z,23.10
2019-04-22T09:22:39.064Z,23.20
2019-04-22T09:25:11.720Z,23.30
2019-04-22T09:27:44.299Z,23.30
2019-04-22T09:30:21.674Z,23.10
2019-04-22T09:32:54.237Z,22.80
2019-04-22T09:35:17.337Z,22.70
2019-04-22T09:38:00.270Z,22.60
2019-04-22T09:40:21.723Z,22.50
2019-04-22T09:42:57.801Z,22.40
2019-04-22T09:45:21.596Z,22.30
2019-04-22T09:48:01.776Z,22.40
2019-04-22T09:50:38.541Z,22.50
2019-04-22T09:53:09.392Z,22.50
2019-04-22T09:55:34.596Z,22.50
2019-04-22T09:58:09.659Z,22.60
2019-04-22T10:00:42.975Z,22.60
2019-04-22T10:03:13.654Z,22.60
2019-04-22T10:05:52.520Z,22.70
2019-04-22T10:08:24.338Z,22.60
2019-04-22T10:10:53.077Z,22.60
2019-04-22T10:13:27.561Z,22.60
2019-04-22T10:15:58.957Z,22.70
2019-04-22T10:18:25.910Z,22.60
2019-04-22T10:21:00.641Z,22.70
2019-04-22T10:23:31.305Z,22.80
2019-04-22T10:26:04.792Z,23.00
2019-04-22T10:28:39.705Z,23.10
2019-04-22T10:31:21.847Z,23.30
2019-04-22T10:33:30.902Z,23.50
2019-04-22T10:35:47.592Z,23.50
2019-04-22T10:38:18.589Z,23.70
2019-04-22T10:40:50.321Z,23.90
2019-04-22T10:43:21.213Z,24.00
2019-04-22T10:45:54.342Z,24.30
2019-04-22T10:48:26.106Z,24.40
2019-04-22T10:50:56.842Z,24.20
2019-04-22T10:53:27.495Z,24.00
2019-04-22T10:55:59.096Z,23.80
2019-04-22T10:58:30.744Z,24.00
2019-04-22T11:01:01.103Z,24.10
2019-04-22T11:03:33.340Z,24.10
2019-04-22T11:06:03.611Z,24.10
2019-04-22T11:08:44.449Z,24.10
2019-04-22T11:11:18.959Z,23.90
2019-04-22T11:13:37.926Z,23.80
2019-04-22T11:16:09.710Z,23.70
2019-04-22T11:18:41.244Z,23.60
2019-04-22T11:21:13.698Z,23.70
2019-04-22T11:23:44.800Z,23.80
2019-04-22T11:26:15.569Z,23.80
2019-04-22T11:28:47.519Z,24.00
2019-04-22T11:31:18.731Z,24.20
2019-04-22T11:33:50.180Z,24.20
2019-04-22T11:36:21.722Z,24.20
2019-04-22T11:39:00.367Z,24.10
2019-04-22T11:41:25.616Z,24.20
2019-04-22T11:43:57.004Z,24.30
2019-04-22T11:46:27.331Z,24.10
2019-04-22T11:48:58.123Z,24.10
2019-04-22T11:51:29.961Z,24.20
2019-04-22T11:54:01.067Z,24.30
2019-04-22T11:56:31.358Z,24.30
2019-04-22T11:59:02.658Z,24.20
2019-04-22T12:01:33.035Z,24.10
2019-04-22T12:04:04.087Z,24.10
2019-04-22T12:06:35.813Z,24.10
2019-04-22T12:09:12.227Z,24.10
2019-04-22T12:11:42.408Z,24.10
2019-04-22T12:14:13.940Z,24.10
2019-04-22T12:16:45.582Z,24.00
2019-04-22T12:19:15.793Z,23.90
2019-04-22T12:21:46.858Z,24.10
2019-04-22T12:24:17.273Z,24.20
2019-04-22T12:26:48.378Z,24.40
2019-04-22T12:29:20.688Z,24.40
2019-04-22T12:31:51.490Z,24.50
2019-04-22T12:34:21.655Z,24.60
2019-04-22T12:36:52.029Z,24.70
2019-04-22T12:39:23.253Z,24.80
2019-04-22T12:41:54.078Z,24.80
2019-04-22T12:44:24.537Z,24.70
2019-04-22T12:46:56.292Z,24.70
2019-04-22T12:49:28.037Z,24.70
2019-04-22T12:51:58.954Z,24.80
2019-04-22T12:54:31.153Z,24.90
2019-04-22T12:57:01.821Z,25.10
2019-04-22T12:59:32.049Z,25.20
2019-04-22T13:02:03.044Z,25.20
2019-04-22T13:04:34.301Z,25.50
2019-04-22T13:07:04.359Z,25.60
2019-04-22T13:09:34.866Z,25.80
2019-04-22T13:12:06.894Z,25.80
2019-04-22T13:14:39.129Z,25.80
2019-04-22T13:17:10.313Z,25.80
2019-04-22T13:19:42.379Z,25.70
2019-04-22T13:22:14.627Z,25.60
2019-04-22T13:24:45.820Z,25.50
2019-04-22T13:27:17.208Z,25.50
2019-04-22T13:29:48.749Z,25.20
2019-04-22T13:32:20.777Z,25.50
2019-04-22T13:34:55.163Z,25.50
2019-04-22T13:37:23.286Z,25.60
2019-04-22T13:39:54.795Z,25.60
2019-04-22T13:42:25.496Z,25.60
2019-04-22T13:44:58.141Z,25.60
2019-04-22T13:47:42.392Z,25.60
2019-04-22T13:50:47.738Z,25.80
2019-04-22T13:53:03.646Z,25.90
2019-04-22T13:55:43.711Z,25.80
2019-04-22T13:57:57.248Z,26.20
2019-04-22T14:00:14.553Z,26.30
2019-04-22T14:03:02.413Z,26.40
2019-04-22T14:05:33.179Z,26.30
2019-04-22T14:08:04.870Z,26.30
2019-04-22T14:10:36.355Z,26.20
2019-04-22T14:13:07.927Z,26.20
2019-04-22T14:15:38.237Z,26.10
2019-04-22T14:18:08.585Z,26.00
2019-04-22T14:20:40.722Z,25.90
2019-04-22T14:23:12.277Z,25.80
2019-04-22T14:25:43.480Z,25.80
2019-04-22T14:28:17.575Z,25.80
2019-04-22T14:30:46.435Z,25.80
2019-04-22T14:33:20.257Z,25.70
2019-04-22T14:35:52.455Z,25.70
2019-04-22T14:38:23.801Z,25.70
2019-04-22T14:40:55.893Z,25.60
2019-04-22T14:43:57.872Z,25.60
2019-04-22T14:46:38.867Z,25.50
2019-04-22T14:49:10.363Z,25.30
2019-04-22T14:51:25.536Z,25.20
2019-04-22T14:53:56.946Z,25.40
2019-04-22T14:56:10.540Z,25.40
2019-04-22T14:58:42.797Z,25.20
2019-04-22T15:01:14.834Z,25.00
2019-04-22T15:03:48.427Z,25.40
2019-04-22T15:06:33.778Z,24.80
2019-04-22T15:09:26.089Z,24.80
2019-04-22T15:12:15.426Z,24.90
2019-04-22T15:14:37.559Z,24.80
2019-04-22T15:17:27.089Z,24.70
2019-04-22T15:20:11.914Z,24.80
2019-04-22T15:22:42.194Z,24.90
2019-04-22T15:25:12.602Z,25.00
2019-04-22T15:27:45.931Z,25.10
2019-04-22T15:30:17.242Z,25.20
2019-04-22T15:32:47.515Z,25.10
2019-04-22T15:35:31.674Z,25.10
2019-04-22T15:38:24.333Z,25.10
2019-04-22T15:40:58.676Z,25.20
2019-04-22T15:43:41.611Z,25.30
2019-04-22T15:46:13.883Z,25.60
2019-04-22T15:48:44.185Z,25.90
2019-04-22T15:51:14.435Z,26.10
2019-04-22T15:53:45.450Z,26.40
2019-04-22T15:56:16.826Z,26.70
2019-04-22T15:58:48.021Z,27.00
2019-04-22T16:01:25.914Z,27.30
2019-04-22T16:03:52.357Z,27.50
2019-04-22T16:06:26.162Z,27.80
2019-04-22T16:09:17.170Z,27.70
2019-04-22T16:11:51.777Z,28.50
2019-04-22T16:14:31.392Z,28.60
2019-04-22T16:16:56.920Z,28.50
2019-04-22T16:19:28.320Z,28.40
2019-04-22T16:22:03.893Z,28.30
2019-04-22T16:24:48.028Z,28.40
2019-04-22T16:27:22.705Z,28.70
2019-04-22T16:29:52.931Z,28.80
2019-04-22T16:32:25.529Z,28.90
2019-04-22T16:34:56.810Z,28.90
2019-04-22T16:37:28.588Z,28.50
2019-04-22T16:39:59.037Z,28.20
2019-04-22T16:42:37.893Z,27.90
2019-04-22T16:45:01.915Z,27.70
2019-04-22T16:47:33.354Z,27.60
2019-04-22T16:50:03.920Z,27.40
2019-04-22T16:52:34.281Z,27.30
2019-04-22T16:55:05.346Z,27.10
2019-04-22T16:57:35.839Z,26.90
2019-04-22T17:00:09.083Z,26.70
2019-04-22T17:03:02.881Z,26.50
2019-04-22T17:05:51.665Z,26.20
2019-04-22T17:08:24.406Z,26.00
2019-04-22T17:10:55.753Z,25.80
2019-04-22T17:13:30.273Z,25.60
2019-04-22T17:16:00.838Z,25.50
2019-04-22T17:18:31.029Z,25.40
2019-04-22T17:21:04.697Z,25.40
2019-04-22T17:23:34.026Z,25.20
2019-04-22T17:26:08.288Z,25.20
2019-04-22T17:28:39.772Z,25.10
2019-04-22T17:31:10.857Z,25.00
2019-04-22T17:33:41.287Z,24.90
2019-04-22T17:36:11.988Z,24.80
2019-04-22T17:38:52.070Z,24.70
2019-04-22T17:41:27.083Z,24.60
2019-04-22T17:44:13.525Z,24.50
2019-04-22T17:46:40.280Z,24.40
2019-04-22T17:49:34.039Z,24.30
2019-04-22T17:57:24.001Z,23.90
2019-04-22T17:59:55.394Z,23.80
2019-04-22T18:02:25.156Z,23.60
2019-04-22T18:04:48.000Z,23.40
2019-04-22T18:07:35.603Z,23.30
2019-04-22T18:10:28.817Z,23.10
2019-04-22T18:12:42.602Z,23.00
2019-04-22T18:15:12.088Z,22.80
2019-04-22T18:17:52.639Z,22.60
2019-04-22T18:20:09.814Z,22.50
2019-04-22T18:22:39.359Z,22.40
2019-04-22T18:25:11.509Z,22.30
2019-04-22T18:27:55.179Z,22.20
2019-04-22T18:30:17.979Z,22.10
2019-04-22T18:32:58.572Z,21.90
2019-04-22T18:35:29.741Z,21.70
2019-04-22T18:38:05.106Z,21.60
2019-04-22T18:40:30.859Z,21.50
2019-04-22T18:43:16.413Z,21.40
2019-04-22T18:48:03.970Z,21.20
2019-04-22T18:50:53.189Z,21.20
2019-04-22T18:53:41.533Z,21.10
2019-04-22T18:56:16.357Z,20.90
2019-04-22T18:58:39.478Z,20.90
2019-04-22T19:00:57.781Z,20.90
2019-04-22T19:03:32.185Z,20.80
2019-04-22T19:06:30.555Z,20.70
2019-04-22T19:08:55.623Z,20.60
2019-04-22T19:11:26.962Z,20.50
2019-04-22T19:14:05.942Z,20.50
2019-04-22T19:16:36.120Z,20.40
2019-04-22T19:21:33.810Z,20.10
2019-04-22T19:24:04.589Z,20.20
2019-04-22T19:26:50.318Z,20.20
2019-04-22T19:29:16.855Z,20.10
2019-04-22T19:31:45.721Z,20.10
2019-04-22T19:34:18.828Z,20.00
2019-04-22T19:36:51.626Z,19.90
2019-04-22T19:39:11.788Z,19.90
2019-04-22T19:41:55.786Z,19.80
2019-04-22T19:44:25.994Z,19.70
2019-04-22T19:47:18.624Z,19.70
2019-04-22T19:49:44.088Z,19.60
2019-04-22T19:52:05.173Z,19.50
2019-04-22T19:54:29.014Z,19.50
2019-04-22T19:56:58.955Z,19.40
2019-04-22T19:59:42.572Z,19.40
2019-04-22T20:02:31.438Z,19.30
2019-04-22T20:05:31.081Z,19.30
2019-04-22T20:08:08.349Z,19.30
2019-04-22T20:10:30.056Z,19.20
2019-04-22T20:13:09.643Z,19.10
2019-04-22T20:15:33.291Z,19.10
2019-04-22T20:18:27.022Z,19.00
2019-04-22T20:20:46.541Z,18.90
2019-04-22T20:23:10.222Z,18.90
2019-04-22T20:25:40.674Z,18.80
2019-04-22T20:28:19.674Z,18.80
2019-04-22T20:30:51.121Z,18.80
2019-04-22T20:33:33.229Z,18.80
2019-04-22T20:35:58.649Z,18.70
2019-04-22T20:38:26.233Z,18.70
2019-04-22T20:40:55.317Z,18.70
2019-04-22T20:43:37.151Z,18.70
2019-04-22T20:46:05.037Z,18.70
2019-04-22T20:48:41.297Z,18.60
2019-04-22T20:51:09.551Z,18.60
2019-04-22T20:53:46.053Z,18.60
2019-04-22T20:56:09.965Z,18.50
2019-04-22T20:58:45.255Z,18.50
2019-04-22T21:01:06.748Z,18.50
2019-04-22T21:03:37.380Z,18.60
2019-04-22T21:06:16.353Z,18.90
2019-04-22T21:08:54.860Z,18.40
2019-04-22T21:11:23.579Z,18.40
2019-04-22T21:13:58.168Z,18.40
2019-04-22T21:16:36.584Z,18.30
2019-04-22T21:19:02.743Z,18.30
2019-04-22T21:21:37.994Z,18.30
2019-04-22T21:23:58.379Z,18.30
2019-04-22T21:26:33.575Z,18.30
2019-04-22T21:29:09.468Z,18.30
2019-04-22T21:31:46.492Z,18.30
2019-04-22T21:34:10.319Z,18.20
2019-04-22T21:36:50.623Z,18.10
2019-04-22T21:39:17.761Z,18.00
2019-04-22T21:41:47.172Z,18.00
2019-04-22T21:44:23.639Z,18.00
2019-04-22T21:47:08.652Z,17.90
2019-04-22T21:49:29.660Z,17.90
2019-04-22T21:52:01.536Z,17.80
2019-04-22T21:54:34.049Z,17.70
2019-04-22T21:59:40.442Z,17.70
2019-04-22T22:02:25.679Z,17.60
2019-04-22T22:04:47.369Z,17.60
2019-04-22T22:07:13.287Z,17.60
2019-04-22T22:09:58.684Z,17.50
2019-04-22T22:12:24.249Z,17.50
2019-04-22T22:15:05.473Z,17.60
2019-04-22T22:17:31.467Z,17.60
2019-04-22T22:19:57.869Z,17.50
2019-04-22T22:22:50.378Z,17.50
2019-04-22T22:25:11.047Z,17.30
2019-04-22T22:27:40.539Z,17.30
2019-04-22T22:30:31.883Z,17.30
2019-04-22T22:32:40.670Z,17.20
2019-04-22T22:35:13.273Z,17.20
2019-04-22T22:37:50.408Z,17.20
2019-04-22T22:40:09.325Z,17.20
2019-04-22T22:42:41.817Z,17.20
2019-04-22T22:45:17.571Z,17.20
2019-04-22T22:48:05.433Z,17.20
2019-04-22T22:50:36.007Z,17.20
2019-04-22T22:53:15.484Z,17.10
2019-04-22T22:55:37.131Z,17.00
2019-04-22T22:58:11.466Z,17.00
2019-04-22T23:00:39.478Z,17.00
2019-04-22T23:05:55.403Z,16.90
2019-04-22T23:08:24.303Z,16.80
2019-04-22T23:10:57.442Z,16.80
2019-04-22T23:13:26.030Z,16.80
2019-04-22T23:15:46.598Z,16.80
2019-04-22T23:18:03.803Z,16.70
2019-04-22T23:20:38.307Z,16.70
2019-04-22T23:23:25.739Z,16.70
2019-04-22T23:26:02.293Z,16.70
2019-04-22T23:28:45.952Z,16.70
2019-04-22T23:31:31.986Z,16.70
2019-04-22T23:34:15.888Z,16.70
2019-04-22T23:37:07.293Z,16.70
2019-04-22T23:39:48.395Z,16.70
2019-04-22T23:42:19.357Z,16.70
2019-04-22T23:44:46.944Z,16.70
2019-04-22T23:47:31.208Z,16.70
2019-04-22T23:50:08.857Z,16.70
2019-04-22T23:53:02.169Z,16.70
2019-04-22T23:55:37.010Z,16.70
2019-04-22T23:58:11.801Z,16.60
